createdAt,value
2018-02-20T00:01:43.427Z,0.00
2018-02-20T00:02:43.440Z,0.00
2018-02-20T00:04:35.642Z,0.00
2018-02-20T00:05:35.655Z,0.00
2018-02-20T00:07:27.814Z,0.00
2018-02-20T00:08:27.823Z,0.00
2018-02-20T00:10:20.000Z,0.00
2018-02-20T00:11:20.013Z,0.00
2018-02-20T00:13:13.245Z,0.00
2018-02-20T00:14:13.253Z,0.00
2018-02-20T00:16:06.411Z,0.00
2018-02-20T00:17:06.429Z,0.00
2018-02-20T00:18:58.639Z,0.00
2018-02-20T00:19:58.615Z,0.00
2018-02-20T00:21:51.762Z,0.00
2018-02-20T00:22:51.773Z,0.00
2018-02-20T00:24:43.978Z,0.00
2018-02-20T00:25:43.973Z,0.00
2018-02-20T00:27:37.164Z,0.00
2018-02-20T00:28:37.190Z,0.00
2018-02-20T00:30:30.307Z,0.00
2018-02-20T00:31:30.339Z,0.00
2018-02-20T00:33:23.490Z,0.00
2018-02-20T00:34:23.544Z,0.00
2018-02-20T00:36:15.656Z,0.00
2018-02-20T00:37:15.684Z,0.00
2018-02-20T00:39:07.876Z,0.00
2018-02-20T00:40:07.876Z,0.00
2018-02-20T00:42:00.054Z,0.00
2018-02-20T00:43:00.062Z,0.00
2018-02-20T00:44:53.270Z,0.00
2018-02-20T00:45:53.249Z,0.00
2018-02-20T00:47:45.452Z,0.00
2018-02-20T00:48:45.459Z,0.00
2018-02-20T00:50:37.619Z,0.00
2018-02-20T00:51:37.628Z,0.00
2018-02-20T00:53:30.801Z,0.00
2018-02-20T00:54:30.798Z,0.00
2018-02-20T00:56:23.931Z,0.00
2018-02-20T00:57:23.929Z,0.00
2018-02-20T00:59:17.095Z,0.00
2018-02-20T01:00:17.100Z,0.00
2018-02-20T01:02:10.241Z,0.00
2018-02-20T01:03:10.251Z,0.00
2018-02-20T01:05:02.517Z,0.00
2018-02-20T01:06:02.460Z,0.00
2018-02-20T01:07:54.696Z,0.00
2018-02-20T01:08:54.709Z,0.00
2018-02-20T01:10:46.934Z,0.00
2018-02-20T01:11:46.941Z,0.00
2018-02-20T01:13:40.124Z,0.00
2018-02-20T01:14:40.130Z,0.00
2018-02-20T01:16:32.309Z,0.00
2018-02-20T01:17:32.342Z,0.00
2018-02-20T01:19:25.487Z,0.00
2018-02-20T01:20:25.486Z,0.00
2018-02-20T01:22:18.670Z,0.00
2018-02-20T01:23:19.384Z,0.00
2018-02-20T01:25:11.837Z,0.00
2018-02-20T01:26:11.850Z,0.00
2018-02-20T01:28:05.342Z,0.00
2018-02-20T01:29:05.022Z,0.00
2018-02-20T01:30:58.245Z,0.00
2018-02-20T01:31:58.261Z,0.00
2018-02-20T01:33:51.424Z,0.00
2018-02-20T01:34:51.424Z,0.00
2018-02-20T01:36:56.914Z,0.00
2018-02-20T01:37:56.935Z,0.00
2018-02-20T01:39:50.080Z,0.00
2018-02-20T01:40:50.082Z,0.00
2018-02-20T01:42:43.264Z,0.00
2018-02-20T01:43:43.283Z,0.00
2018-02-20T01:45:35.505Z,0.00
2018-02-20T01:46:35.488Z,0.00
2018-02-20T01:48:28.662Z,0.00
2018-02-20T01:49:28.657Z,0.00
2018-02-20T01:51:22.535Z,0.00
2018-02-20T01:52:21.796Z,0.00
2018-02-20T01:54:14.958Z,0.00
2018-02-20T01:55:14.957Z,0.00
2018-02-20T01:57:07.140Z,0.00
2018-02-20T01:58:07.156Z,0.00
2018-02-20T02:00:00.387Z,0.00
2018-02-20T02:01:00.399Z,0.00
2018-02-20T02:02:52.729Z,0.00
2018-02-20T02:03:52.617Z,0.00
2018-02-20T02:05:59.390Z,0.00
2018-02-20T02:06:59.380Z,0.00
2018-02-20T02:08:52.631Z,0.00
2018-02-20T02:09:52.583Z,0.00
2018-02-20T02:11:44.784Z,0.00
2018-02-20T02:12:44.854Z,0.00
2018-02-20T02:14:37.942Z,0.00
2018-02-20T02:15:37.946Z,0.00
2018-02-20T02:17:45.446Z,0.00
2018-02-20T02:18:44.599Z,0.00
2018-02-20T02:20:55.608Z,0.00
2018-02-20T02:21:55.166Z,0.00
2018-02-20T02:23:48.352Z,0.00
2018-02-20T02:24:48.362Z,0.00
2018-02-20T02:26:41.510Z,0.00
2018-02-20T02:27:41.528Z,0.00
2018-02-20T02:29:34.686Z,0.00
2018-02-20T02:30:34.685Z,0.00
2018-02-20T02:32:44.423Z,0.00
2018-02-20T02:33:44.390Z,0.00
2018-02-20T02:35:37.563Z,0.00
2018-02-20T02:36:37.576Z,0.00
2018-02-20T02:38:30.741Z,0.00
2018-02-20T02:39:30.754Z,0.00
2018-02-20T02:41:22.907Z,0.00
2018-02-20T02:42:22.916Z,0.00
2018-02-20T02:44:31.453Z,0.00
2018-02-20T02:45:31.453Z,0.00
2018-02-20T02:47:24.625Z,0.00
2018-02-20T02:48:24.623Z,0.00
2018-02-20T02:50:16.791Z,0.00
2018-02-20T02:51:16.780Z,0.00
2018-02-20T02:53:09.948Z,0.00
2018-02-20T02:54:09.930Z,0.00
2018-02-20T02:56:02.136Z,0.00
2018-02-20T02:57:02.139Z,0.00
2018-02-20T02:58:54.336Z,0.00
2018-02-20T02:59:54.309Z,0.00
2018-02-20T03:01:46.548Z,0.00
2018-02-20T03:02:46.571Z,0.00
2018-02-20T03:04:39.726Z,0.00
2018-02-20T03:05:39.722Z,0.00
2018-02-20T03:07:32.860Z,0.00
2018-02-20T03:08:32.897Z,0.00
2018-02-20T03:10:26.036Z,0.00
2018-02-20T03:11:26.032Z,0.00
2018-02-20T03:13:19.199Z,0.00
2018-02-20T03:14:19.240Z,0.00
2018-02-20T03:16:11.366Z,0.00
2018-02-20T03:17:11.368Z,0.00
2018-02-20T03:19:03.666Z,0.00
2018-02-20T03:20:03.568Z,0.00
2018-02-20T03:21:55.720Z,0.00
2018-02-20T03:22:55.742Z,0.00
2018-02-20T03:24:47.881Z,0.00
2018-02-20T03:25:47.889Z,0.00
2018-02-20T03:27:40.057Z,0.00
2018-02-20T03:28:40.066Z,0.00
2018-02-20T03:30:33.224Z,0.00
2018-02-20T03:31:33.227Z,0.00
2018-02-20T03:33:25.387Z,0.00
2018-02-20T03:34:25.399Z,0.00
2018-02-20T03:36:29.436Z,0.00
2018-02-20T03:37:29.451Z,0.00
2018-02-20T03:39:22.578Z,0.00
2018-02-20T03:40:22.582Z,0.00
2018-02-20T03:42:15.745Z,0.00
2018-02-20T03:43:15.742Z,0.00
2018-02-20T03:45:08.899Z,0.00
2018-02-20T03:46:08.891Z,0.00
2018-02-20T03:48:02.066Z,0.00
2018-02-20T03:49:02.069Z,0.00
2018-02-20T03:50:55.267Z,0.00
2018-02-20T03:51:55.273Z,0.00
2018-02-20T03:53:48.531Z,0.00
2018-02-20T03:54:48.533Z,0.00
2018-02-20T03:56:40.745Z,0.00
2018-02-20T03:57:40.719Z,0.00
2018-02-20T03:59:32.913Z,0.00
2018-02-20T04:00:32.907Z,0.00
2018-02-20T04:02:26.038Z,0.00
2018-02-20T04:03:26.066Z,0.00
2018-02-20T04:05:18.254Z,0.00
2018-02-20T04:06:18.271Z,0.00
2018-02-20T04:08:10.401Z,0.00
2018-02-20T04:09:10.401Z,0.00
2018-02-20T04:11:03.590Z,0.00
2018-02-20T04:12:03.605Z,0.00
2018-02-20T04:13:56.736Z,0.00
2018-02-20T04:14:56.750Z,0.00
2018-02-20T04:16:49.906Z,0.00
2018-02-20T04:17:49.907Z,0.00
2018-02-20T04:19:43.105Z,0.00
2018-02-20T04:20:43.079Z,0.00
2018-02-20T04:22:35.332Z,0.00
2018-02-20T04:23:35.314Z,0.00
2018-02-20T04:25:27.477Z,0.00
2018-02-20T04:26:27.457Z,0.00
2018-02-20T04:28:20.664Z,0.00
2018-02-20T04:29:20.661Z,0.00
2018-02-20T04:31:13.817Z,0.00
2018-02-20T04:32:13.817Z,0.00
2018-02-20T04:34:05.974Z,0.00
2018-02-20T04:35:05.987Z,0.00
2018-02-20T04:36:59.162Z,0.00
2018-02-20T04:37:59.145Z,0.00
2018-02-20T04:39:52.307Z,0.00
2018-02-20T04:40:52.304Z,0.00
2018-02-20T04:42:44.451Z,0.00
2018-02-20T04:43:44.461Z,0.00
2018-02-20T04:45:37.664Z,0.00
2018-02-20T04:46:37.674Z,0.00
2018-02-20T04:48:30.839Z,0.00
2018-02-20T04:49:30.833Z,0.00
2018-02-20T04:51:23.834Z,0.00
2018-02-20T04:52:22.999Z,0.00
2018-02-20T04:54:15.151Z,0.00
2018-02-20T04:55:15.166Z,0.00
2018-02-20T04:57:07.318Z,0.00
2018-02-20T04:58:07.324Z,0.00
2018-02-20T04:59:59.551Z,0.00
2018-02-20T05:00:59.548Z,0.00
2018-02-20T05:02:51.736Z,0.00
2018-02-20T05:03:51.715Z,0.00
2018-02-20T05:05:44.889Z,0.00
2018-02-20T05:06:44.858Z,0.00
2018-02-20T05:08:37.029Z,0.00
2018-02-20T05:09:37.037Z,0.00
2018-02-20T05:11:29.284Z,0.00
2018-02-20T05:12:29.285Z,0.00
2018-02-20T05:14:21.460Z,0.00
2018-02-20T05:15:21.472Z,0.00
2018-02-20T05:17:14.614Z,0.00
2018-02-20T05:18:14.622Z,0.00
2018-02-20T05:20:07.879Z,0.00
2018-02-20T05:21:07.883Z,0.00
2018-02-20T05:23:00.037Z,0.00
2018-02-20T05:24:00.039Z,0.00
2018-02-20T05:25:52.222Z,0.00
2018-02-20T05:26:52.244Z,0.00
2018-02-20T05:28:44.421Z,0.00
2018-02-20T05:29:44.440Z,0.00
2018-02-20T05:31:36.702Z,0.00
2018-02-20T05:32:36.683Z,0.00
2018-02-20T05:34:46.163Z,0.00
2018-02-20T05:35:46.199Z,0.00
2018-02-20T05:37:39.360Z,0.00
2018-02-20T05:38:39.335Z,0.00
2018-02-20T05:40:32.496Z,0.00
2018-02-20T05:41:32.491Z,0.00
2018-02-20T05:43:25.635Z,0.00
2018-02-20T05:44:25.651Z,0.00
2018-02-20T05:46:18.814Z,0.00
2018-02-20T05:47:18.823Z,0.00
2018-02-20T05:49:11.962Z,4.00
2018-02-20T05:50:11.978Z,4.00
2018-02-20T05:52:05.157Z,0.00
2018-02-20T05:53:05.140Z,4.00
2018-02-20T05:54:58.297Z,0.00
2018-02-20T05:55:58.294Z,4.00
2018-02-20T05:57:51.500Z,4.00
2018-02-20T05:58:51.453Z,4.00
2018-02-20T06:00:44.624Z,8.00
2018-02-20T06:01:44.648Z,12.00
2018-02-20T06:03:37.760Z,16.00
2018-02-20T06:04:37.793Z,16.00
2018-02-20T06:06:30.947Z,20.00
2018-02-20T06:07:31.025Z,24.00
2018-02-20T06:09:24.407Z,28.00
2018-02-20T06:10:24.113Z,28.00
2018-02-20T06:12:17.272Z,36.00
2018-02-20T06:13:17.266Z,40.00
2018-02-20T06:15:10.485Z,44.00
2018-02-20T06:16:10.478Z,48.00
2018-02-20T06:18:03.593Z,60.00
2018-02-20T06:19:03.590Z,64.00
2018-02-20T06:20:56.746Z,76.00
2018-02-20T06:21:56.742Z,84.00
2018-02-20T06:23:49.898Z,100.00
2018-02-20T06:24:49.902Z,108.00
2018-02-20T06:26:43.062Z,120.00
2018-02-20T06:27:43.055Z,132.00
2018-02-20T06:29:36.183Z,148.00
2018-02-20T06:30:36.199Z,156.00
2018-02-20T06:32:29.349Z,172.00
2018-02-20T06:33:29.351Z,180.00
2018-02-20T06:35:22.491Z,196.00
2018-02-20T06:36:22.513Z,208.00
2018-02-20T06:38:14.719Z,236.00
2018-02-20T06:39:14.691Z,252.00
2018-02-20T06:41:07.577Z,284.00
2018-02-20T06:42:06.892Z,296.00
2018-02-20T06:44:00.045Z,324.00
2018-02-20T06:45:00.055Z,340.00
2018-02-20T06:46:53.272Z,376.00
2018-02-20T06:47:53.232Z,396.00
2018-02-20T06:49:46.370Z,432.00
2018-02-20T06:50:46.377Z,448.00
2018-02-20T06:52:39.542Z,480.00
2018-02-20T06:53:39.534Z,496.00
2018-02-20T06:55:32.673Z,532.00
2018-02-20T06:56:32.693Z,544.00
2018-02-20T06:58:25.884Z,576.00
2018-02-20T06:59:25.884Z,592.00
2018-02-20T07:01:19.023Z,624.00
2018-02-20T07:02:19.026Z,644.00
2018-02-20T07:04:12.188Z,680.00
2018-02-20T07:05:12.166Z,704.00
2018-02-20T07:07:05.421Z,752.00
2018-02-20T07:08:05.356Z,776.00
2018-02-20T07:09:58.482Z,820.00
2018-02-20T07:10:58.498Z,848.00
2018-02-20T07:12:51.642Z,888.00
2018-02-20T07:13:51.641Z,908.00
2018-02-20T07:15:44.791Z,924.00
2018-02-20T07:16:44.801Z,944.00
2018-02-20T07:18:37.959Z,976.00
2018-02-20T07:19:37.969Z,988.00
2018-02-20T07:21:31.109Z,1016.00
2018-02-20T07:22:31.126Z,1020.00
2018-02-20T07:24:24.279Z,1044.00
2018-02-20T07:25:24.264Z,1044.00
2018-02-20T07:27:17.440Z,1076.00
2018-02-20T07:28:17.457Z,1068.00
2018-02-20T07:30:10.608Z,1064.00
2018-02-20T07:31:10.603Z,1084.00
2018-02-20T07:33:03.760Z,1092.00
2018-02-20T07:34:03.776Z,1100.00
2018-02-20T07:36:07.776Z,1128.00
2018-02-20T07:37:07.750Z,1124.00
2018-02-20T07:39:00.938Z,1152.00
2018-02-20T07:40:00.957Z,1160.00
2018-02-20T07:41:54.102Z,1176.00
2018-02-20T07:42:54.098Z,1216.00
2018-02-20T07:44:47.258Z,1196.00
2018-02-20T07:45:47.263Z,1236.00
2018-02-20T07:47:40.416Z,1216.00
2018-02-20T07:48:40.411Z,1224.00
2018-02-20T07:50:49.944Z,1276.00
2018-02-20T07:51:49.962Z,1232.00
2018-02-20T07:53:43.056Z,1304.00
2018-02-20T07:54:43.077Z,1304.00
2018-02-20T07:56:36.234Z,1296.00
2018-02-20T07:57:36.235Z,1316.00
2018-02-20T07:59:29.445Z,1364.00
2018-02-20T08:00:29.449Z,1368.00
2018-02-20T08:02:21.625Z,1404.00
2018-02-20T08:03:21.640Z,1544.00
2018-02-20T08:05:13.798Z,1480.00
2018-02-20T08:06:13.805Z,1456.00
2018-02-20T08:08:06.012Z,1556.00
2018-02-20T08:09:06.004Z,1580.00
2018-02-20T08:10:59.203Z,1820.00
2018-02-20T08:11:59.218Z,1600.00
2018-02-20T08:13:52.343Z,2044.00
2018-02-20T08:14:52.344Z,1816.00
2018-02-20T08:16:45.522Z,1820.00
2018-02-20T08:17:45.521Z,1968.00
2018-02-20T08:19:38.677Z,1952.00
2018-02-20T08:20:38.684Z,1856.00
2018-02-20T08:22:31.851Z,1896.00
2018-02-20T08:23:31.852Z,1856.00
2018-02-20T08:25:35.704Z,1908.00
2018-02-20T08:26:35.710Z,1912.00
2018-02-20T08:28:28.865Z,1980.00
2018-02-20T08:29:28.858Z,2004.00
2018-02-20T08:31:22.000Z,2212.00
2018-02-20T08:32:22.003Z,2408.00
2018-02-20T08:34:15.149Z,2200.00
2018-02-20T08:35:15.170Z,2284.00
2018-02-20T08:37:08.343Z,2468.00
2018-02-20T08:38:08.332Z,2552.00
2018-02-20T08:40:01.472Z,2312.00
2018-02-20T08:41:01.487Z,2328.00
2018-02-20T08:42:54.654Z,2380.00
2018-02-20T08:43:54.662Z,2472.00
2018-02-20T08:45:47.836Z,2320.00
2018-02-20T08:46:47.839Z,2436.00
2018-02-20T08:48:40.981Z,2480.00
2018-02-20T08:49:40.997Z,2520.00
2018-02-20T08:51:34.171Z,2500.00
2018-02-20T08:52:34.163Z,2452.00
2018-02-20T08:54:27.444Z,2572.00
2018-02-20T08:55:27.328Z,2564.00
2018-02-20T08:57:20.494Z,2604.00
2018-02-20T08:58:20.489Z,2708.00
2018-02-20T09:00:13.641Z,2680.00
2018-02-20T09:01:13.654Z,2656.00
2018-02-20T09:03:06.823Z,2688.00
2018-02-20T09:04:06.809Z,2776.00
2018-02-20T09:05:58.999Z,2716.00
2018-02-20T09:06:59.005Z,2704.00
2018-02-20T09:08:52.173Z,2788.00
2018-02-20T09:09:52.160Z,2832.00
2018-02-20T09:11:45.343Z,2828.00
2018-02-20T09:12:45.355Z,2848.00
2018-02-20T09:14:38.481Z,2904.00
2018-02-20T09:15:38.491Z,2980.00
2018-02-20T09:17:31.651Z,3052.00
2018-02-20T09:18:31.659Z,3056.00
2018-02-20T09:20:23.846Z,3112.00
2018-02-20T09:21:23.858Z,3184.00
2018-02-20T09:23:17.044Z,3316.00
2018-02-20T09:24:17.050Z,3268.00
2018-02-20T09:26:10.215Z,3296.00
2018-02-20T09:27:10.237Z,3412.00
2018-02-20T09:29:02.588Z,3392.00
2018-02-20T09:30:02.555Z,3420.00
2018-02-20T09:32:11.130Z,3448.00
2018-02-20T09:33:11.119Z,3428.00
2018-02-20T09:35:20.654Z,3460.00
2018-02-20T09:36:20.748Z,3464.00
2018-02-20T09:38:14.150Z,3564.00
2018-02-20T09:39:13.868Z,3452.00
2018-02-20T09:41:23.356Z,3412.00
2018-02-20T09:42:23.374Z,3428.00
2018-02-20T09:44:16.602Z,3464.00
2018-02-20T09:45:16.582Z,3360.00
2018-02-20T09:47:09.715Z,3352.00
2018-02-20T09:48:09.748Z,3340.00
2018-02-20T09:50:02.902Z,3128.00
2018-02-20T09:51:02.896Z,3156.00
2018-02-20T09:53:09.424Z,3152.00
2018-02-20T09:54:09.425Z,3140.00
2018-02-20T09:56:02.601Z,3192.00
2018-02-20T09:57:02.608Z,3284.00
2018-02-20T09:58:55.803Z,3484.00
2018-02-20T09:59:55.797Z,3564.00
2018-02-20T10:01:49.689Z,3796.00
2018-02-20T10:02:48.957Z,3916.00
2018-02-20T10:04:42.116Z,4252.00
2018-02-20T10:05:42.125Z,4484.00
2018-02-20T10:07:52.005Z,5076.00
2018-02-20T10:08:51.993Z,5380.00
2018-02-20T10:10:45.183Z,5944.00
2018-02-20T10:11:45.173Z,6256.00
2018-02-20T10:13:38.392Z,8728.00
2018-02-20T10:14:38.376Z,16448.00
2018-02-20T10:16:31.543Z,27200.00
2018-02-20T10:17:31.555Z,27072.00
2018-02-20T10:19:24.722Z,27456.00
2018-02-20T10:20:24.793Z,28320.00
2018-02-20T10:22:17.862Z,29088.00
2018-02-20T10:23:17.911Z,28032.00
2018-02-20T10:25:11.059Z,28736.00
2018-02-20T10:26:11.067Z,27744.00
2018-02-20T10:28:04.272Z,31424.00
2018-02-20T10:29:04.281Z,33440.00
2018-02-20T10:30:57.438Z,35712.00
2018-02-20T10:31:57.464Z,35552.00
2018-02-20T10:33:50.633Z,33792.00
2018-02-20T10:34:50.636Z,34304.00
2018-02-20T10:36:43.850Z,33792.00
2018-02-20T10:37:43.893Z,33984.00
2018-02-20T10:39:37.038Z,31456.00
2018-02-20T10:40:37.043Z,33696.00
2018-02-20T10:42:30.196Z,32352.00
2018-02-20T10:43:30.234Z,33632.00
2018-02-20T10:45:23.386Z,34464.00
2018-02-20T10:46:23.386Z,34336.00
2018-02-20T10:48:16.584Z,34880.00
2018-02-20T10:49:16.603Z,35936.00
2018-02-20T10:51:09.757Z,35616.00
2018-02-20T10:52:09.775Z,34400.00
2018-02-20T10:54:02.967Z,39296.00
2018-02-20T10:55:02.957Z,37184.00
2018-02-20T10:56:56.135Z,34272.00
2018-02-20T10:57:56.147Z,35168.00
2018-02-20T10:59:49.331Z,29376.00
2018-02-20T11:00:50.072Z,29888.00
2018-02-20T11:02:42.525Z,37504.00
2018-02-20T11:03:42.555Z,36896.00
2018-02-20T11:05:35.762Z,29024.00
2018-02-20T11:06:35.762Z,26272.00
2018-02-20T11:08:28.971Z,34336.00
2018-02-20T11:09:28.993Z,31424.00
2018-02-20T11:11:22.167Z,27872.00
2018-02-20T11:12:22.189Z,30272.00
2018-02-20T11:14:15.385Z,32512.00
2018-02-20T11:15:15.475Z,31232.00
2018-02-20T11:17:08.575Z,35136.00
2018-02-20T11:18:08.610Z,26752.00
2018-02-20T11:20:01.803Z,32256.00
2018-02-20T11:21:01.812Z,25600.00
2018-02-20T11:22:54.994Z,26112.00
2018-02-20T11:23:55.008Z,29056.00
2018-02-20T11:25:48.180Z,34336.00
2018-02-20T11:26:48.255Z,32288.00
2018-02-20T11:28:41.386Z,21248.00
2018-02-20T11:29:41.506Z,19616.00
2018-02-20T11:31:34.561Z,16576.00
2018-02-20T11:32:34.566Z,15680.00
2018-02-20T11:34:27.781Z,12028.00
2018-02-20T11:35:27.778Z,11660.00
2018-02-20T11:37:20.936Z,16832.00
2018-02-20T11:38:20.971Z,13816.00
2018-02-20T11:40:14.167Z,12372.00
2018-02-20T11:41:14.231Z,7576.00
2018-02-20T11:43:07.340Z,11692.00
2018-02-20T11:44:07.352Z,10084.00
2018-02-20T11:46:00.532Z,17248.00
2018-02-20T11:47:00.556Z,17728.00
2018-02-20T11:48:53.754Z,14436.00
2018-02-20T11:49:53.768Z,9604.00
2018-02-20T11:51:46.983Z,16640.00
2018-02-20T11:52:46.968Z,12972.00
2018-02-20T11:54:40.141Z,18656.00
2018-02-20T11:55:40.147Z,20480.00
2018-02-20T11:57:33.398Z,28096.00
2018-02-20T11:58:33.408Z,21152.00
2018-02-20T12:00:26.572Z,21152.00
2018-02-20T12:01:26.641Z,26464.00
2018-02-20T12:03:19.806Z,25248.00
2018-02-20T12:04:19.823Z,29632.00
2018-02-20T12:06:13.004Z,33920.00
2018-02-20T12:07:13.025Z,29696.00
2018-02-20T12:09:06.214Z,30272.00
2018-02-20T12:10:06.227Z,29472.00
2018-02-20T12:11:59.409Z,27104.00
2018-02-20T12:12:59.418Z,32576.00
2018-02-20T12:14:52.580Z,30624.00
2018-02-20T12:15:52.592Z,32896.00
2018-02-20T12:17:45.801Z,26208.00
2018-02-20T12:18:45.815Z,26976.00
2018-02-20T12:20:55.369Z,25088.00
2018-02-20T12:21:55.414Z,27232.00
2018-02-20T12:23:48.608Z,33696.00
2018-02-20T12:24:49.274Z,32672.00
2018-02-20T12:26:58.141Z,33152.00
2018-02-20T12:27:58.172Z,31360.00
2018-02-20T12:29:51.425Z,19232.00
2018-02-20T12:30:51.481Z,7932.00
2018-02-20T12:32:44.666Z,4312.00
2018-02-20T12:33:44.631Z,4064.00
2018-02-20T12:35:37.837Z,3756.00
2018-02-20T12:36:37.853Z,3668.00
2018-02-20T12:38:44.460Z,3628.00
2018-02-20T12:39:44.465Z,3612.00
2018-02-20T12:41:37.651Z,3512.00
2018-02-20T12:42:37.688Z,3488.00
2018-02-20T12:44:30.850Z,3460.00
2018-02-20T12:45:30.862Z,3368.00
2018-02-20T12:47:24.005Z,3308.00
2018-02-20T12:48:24.041Z,3276.00
2018-02-20T12:50:17.248Z,3224.00
2018-02-20T12:51:17.258Z,3196.00
2018-02-20T12:53:10.470Z,3108.00
2018-02-20T12:54:10.487Z,3064.00
2018-02-20T12:56:03.658Z,3020.00
2018-02-20T12:57:03.678Z,2948.00
2018-02-20T12:58:56.905Z,2880.00
2018-02-20T12:59:56.847Z,2856.00
2018-02-20T13:02:03.690Z,2772.00
2018-02-20T13:03:03.722Z,2752.00
2018-02-20T13:04:56.888Z,2856.00
2018-02-20T13:05:56.893Z,2772.00
2018-02-20T13:07:50.147Z,2700.00
2018-02-20T13:08:50.063Z,2628.00
2018-02-20T13:10:57.602Z,2540.00
2018-02-20T13:11:57.613Z,2520.00
2018-02-20T13:13:50.765Z,2480.00
2018-02-20T13:14:50.773Z,2444.00
2018-02-20T13:16:43.938Z,2464.00
2018-02-20T13:17:44.740Z,2476.00
2018-02-20T13:19:37.101Z,2436.00
2018-02-20T13:20:37.111Z,2420.00
2018-02-20T13:22:30.259Z,2396.00
2018-02-20T13:23:30.273Z,2364.00
2018-02-20T13:25:22.517Z,2284.00
2018-02-20T13:26:22.517Z,2276.00
2018-02-20T13:28:15.699Z,2228.00
2018-02-20T13:29:15.719Z,2228.00
2018-02-20T13:31:07.914Z,2228.00
2018-02-20T13:32:07.916Z,2192.00
2018-02-20T13:34:01.146Z,2148.00
2018-02-20T13:35:01.128Z,2136.00
2018-02-20T13:36:54.235Z,2044.00
2018-02-20T13:37:54.247Z,2024.00
2018-02-20T13:39:47.400Z,2064.00
2018-02-20T13:40:47.412Z,2060.00
2018-02-20T13:42:40.613Z,2044.00
2018-02-20T13:43:40.622Z,2068.00
2018-02-20T13:45:33.788Z,2064.00
2018-02-20T13:46:33.798Z,2056.00
2018-02-20T13:48:26.950Z,2020.00
2018-02-20T13:49:26.958Z,1908.00
2018-02-20T13:51:20.136Z,1784.00
2018-02-20T13:52:20.134Z,1780.00
2018-02-20T13:54:12.339Z,1828.00
2018-02-20T13:55:12.358Z,1840.00
2018-02-20T13:57:05.498Z,1796.00
2018-02-20T13:58:05.503Z,1756.00
2018-02-20T13:59:58.651Z,1704.00
2018-02-20T14:00:58.652Z,1688.00
2018-02-20T14:02:51.837Z,1728.00
2018-02-20T14:03:51.831Z,1704.00
2018-02-20T14:05:44.962Z,1648.00
2018-02-20T14:06:44.988Z,1636.00
2018-02-20T14:08:38.140Z,1572.00
2018-02-20T14:09:38.163Z,1548.00
2018-02-20T14:11:31.321Z,1544.00
2018-02-20T14:12:31.290Z,1512.00
2018-02-20T14:14:24.466Z,1548.00
2018-02-20T14:15:24.456Z,1548.00
2018-02-20T14:17:17.604Z,1548.00
2018-02-20T14:18:17.621Z,1564.00
2018-02-20T14:20:10.771Z,1484.00
2018-02-20T14:21:10.780Z,1424.00
2018-02-20T14:23:03.980Z,1316.00
2018-02-20T14:24:03.996Z,1264.00
2018-02-20T14:25:57.143Z,1276.00
2018-02-20T14:26:57.153Z,1260.00
2018-02-20T14:28:50.353Z,1260.00
2018-02-20T14:29:50.357Z,1256.00
2018-02-20T14:31:43.534Z,1224.00
2018-02-20T14:32:43.537Z,1204.00
2018-02-20T14:34:36.676Z,1176.00
2018-02-20T14:35:36.702Z,1164.00
2018-02-20T14:37:29.861Z,1140.00
2018-02-20T14:38:29.883Z,1112.00
2018-02-20T14:40:23.088Z,1068.00
2018-02-20T14:41:23.158Z,1036.00
2018-02-20T14:43:16.308Z,1000.00
2018-02-20T14:44:16.314Z,980.00
2018-02-20T14:46:08.508Z,964.00
2018-02-20T14:47:08.501Z,956.00
2018-02-20T14:49:01.667Z,936.00
2018-02-20T14:50:01.675Z,924.00
2018-02-20T14:52:10.221Z,892.00
2018-02-20T14:53:10.232Z,876.00
2018-02-20T14:55:03.491Z,860.00
2018-02-20T14:56:03.392Z,848.00
2018-02-20T14:57:56.565Z,832.00
2018-02-20T14:58:56.580Z,820.00
2018-02-20T15:00:49.735Z,796.00
2018-02-20T15:01:49.743Z,784.00
2018-02-20T15:03:41.892Z,760.00
2018-02-20T15:04:41.905Z,744.00
2018-02-20T15:06:35.130Z,720.00
2018-02-20T15:07:35.070Z,708.00
2018-02-20T15:09:28.215Z,692.00
2018-02-20T15:10:28.223Z,684.00
2018-02-20T15:12:21.416Z,664.00
2018-02-20T15:13:21.386Z,652.00
2018-02-20T15:15:14.829Z,636.00
2018-02-20T15:16:14.553Z,628.00
2018-02-20T15:18:07.694Z,612.00
2018-02-20T15:19:07.703Z,600.00
2018-02-20T15:21:00.968Z,580.00
2018-02-20T15:22:00.877Z,572.00
2018-02-20T15:23:54.021Z,552.00
2018-02-20T15:24:54.039Z,544.00
2018-02-20T15:26:47.292Z,524.00
2018-02-20T15:27:47.247Z,520.00
2018-02-20T15:29:40.379Z,500.00
2018-02-20T15:30:40.409Z,488.00
2018-02-20T15:32:33.552Z,464.00
2018-02-20T15:33:33.559Z,456.00
2018-02-20T15:35:26.700Z,440.00
2018-02-20T15:36:26.711Z,432.00
2018-02-20T15:38:46.754Z,412.00
2018-02-20T15:39:46.756Z,400.00
2018-02-20T15:41:39.928Z,384.00
2018-02-20T15:42:39.927Z,372.00
2018-02-20T15:44:33.095Z,356.00
2018-02-20T15:45:33.117Z,344.00
2018-02-20T15:47:26.246Z,332.00
2018-02-20T15:48:26.274Z,320.00
2018-02-20T15:50:19.424Z,304.00
2018-02-20T15:51:19.412Z,300.00
2018-02-20T15:53:12.625Z,280.00
2018-02-20T15:54:12.613Z,276.00
2018-02-20T15:56:05.793Z,252.00
2018-02-20T15:57:05.807Z,248.00
2018-02-20T15:58:58.934Z,228.00
2018-02-20T15:59:58.956Z,224.00
2018-02-20T16:01:52.169Z,208.00
2018-02-20T16:02:52.125Z,200.00
2018-02-20T16:04:45.252Z,184.00
2018-02-20T16:05:45.274Z,180.00
2018-02-20T16:07:38.442Z,164.00
2018-02-20T16:08:38.434Z,156.00
2018-02-20T16:10:42.342Z,144.00
2018-02-20T16:11:42.346Z,136.00
2018-02-20T16:13:35.501Z,124.00
2018-02-20T16:14:35.555Z,116.00
2018-02-20T16:16:28.690Z,104.00
2018-02-20T16:17:28.660Z,96.00
2018-02-20T16:19:21.797Z,88.00
2018-02-20T16:20:21.829Z,80.00
2018-02-20T16:22:15.047Z,68.00
2018-02-20T16:23:14.983Z,64.00
2018-02-20T16:25:08.143Z,56.00
2018-02-20T16:26:08.156Z,52.00
2018-02-20T16:28:01.280Z,44.00
2018-02-20T16:29:01.311Z,40.00
2018-02-20T16:30:53.451Z,36.00
2018-02-20T16:31:53.440Z,28.00
2018-02-20T16:34:03.041Z,28.00
2018-02-20T16:35:03.005Z,20.00
2018-02-20T16:36:56.192Z,16.00
2018-02-20T16:37:56.194Z,16.00
2018-02-20T16:39:49.351Z,12.00
2018-02-20T16:40:49.358Z,12.00
2018-02-20T16:42:42.561Z,8.00
2018-02-20T16:43:42.563Z,8.00
2018-02-20T16:45:35.678Z,4.00
2018-02-20T16:46:35.705Z,4.00
2018-02-20T16:48:28.859Z,4.00
2018-02-20T16:49:28.860Z,0.00
2018-02-20T16:51:22.024Z,4.00
2018-02-20T16:52:22.069Z,0.00
2018-02-20T16:54:14.228Z,4.00
2018-02-20T16:55:14.232Z,0.00
2018-02-20T16:57:07.441Z,0.00
2018-02-20T16:58:07.524Z,0.00
2018-02-20T17:00:00.624Z,0.00
2018-02-20T17:01:00.637Z,0.00
2018-02-20T17:02:53.792Z,0.00
2018-02-20T17:03:53.804Z,0.00
2018-02-20T17:05:46.944Z,0.00
2018-02-20T17:06:46.961Z,0.00
2018-02-20T17:08:39.125Z,0.00
2018-02-20T17:09:39.137Z,0.00
2018-02-20T17:11:31.344Z,0.00
2018-02-20T17:12:31.333Z,0.00
2018-02-20T17:14:23.495Z,0.00
2018-02-20T17:15:23.498Z,0.00
2018-02-20T17:17:15.700Z,0.00
2018-02-20T17:18:15.684Z,0.00
2018-02-20T17:20:07.863Z,0.00
2018-02-20T17:21:07.876Z,0.00
2018-02-20T17:23:00.070Z,0.00
2018-02-20T17:24:00.081Z,0.00
2018-02-20T17:25:53.273Z,0.00
2018-02-20T17:26:53.241Z,0.00
2018-02-20T17:28:46.399Z,0.00
2018-02-20T17:29:46.406Z,0.00
2018-02-20T17:31:39.592Z,0.00
2018-02-20T17:32:39.602Z,0.00
2018-02-20T17:34:31.785Z,0.00
2018-02-20T17:35:31.795Z,0.00
2018-02-20T17:37:24.941Z,0.00
2018-02-20T17:38:24.938Z,0.00
2018-02-20T17:40:18.109Z,0.00
2018-02-20T17:41:18.103Z,0.00
2018-02-20T17:43:11.276Z,0.00
2018-02-20T17:44:11.273Z,0.00
2018-02-20T17:46:17.837Z,0.00
2018-02-20T17:47:17.841Z,0.00
2018-02-20T17:49:10.008Z,0.00
2018-02-20T17:50:10.010Z,0.00
2018-02-20T17:52:02.237Z,0.00
2018-02-20T17:53:02.216Z,0.00
2018-02-20T17:54:54.447Z,0.00
2018-02-20T17:55:54.461Z,0.00
2018-02-20T17:57:47.650Z,0.00
2018-02-20T17:58:47.627Z,0.00
2018-02-20T18:00:57.146Z,0.00
2018-02-20T18:01:57.155Z,0.00
2018-02-20T18:03:49.333Z,0.00
2018-02-20T18:04:49.323Z,0.00
2018-02-20T18:06:55.840Z,0.00
2018-02-20T18:07:55.857Z,0.00
2018-02-20T18:09:58.854Z,0.00
2018-02-20T18:10:58.854Z,0.00
2018-02-20T18:12:51.012Z,0.00
2018-02-20T18:13:51.006Z,0.00
2018-02-20T18:15:44.165Z,0.00
2018-02-20T18:16:44.165Z,0.00
2018-02-20T18:18:37.344Z,0.00